createdAt,value
2022-12-25T00:02:55.060Z,9.00
2022-12-25T00:07:56.899Z,9.20
2022-12-25T00:12:58.605Z,9.40
2022-12-25T00:18:00.309Z,9.40
2022-12-25T00:23:01.987Z,9.60
2022-12-25T00:28:03.809Z,9.90
2022-12-25T00:33:05.488Z,9.80
2022-12-25T00:38:07.376Z,9.70
2022-12-25T00:43:09.189Z,9.70
2022-12-25T00:48:10.872Z,10.00
2022-12-25T00:53:12.579Z,9.80
2022-12-25T00:58:14.283Z,9.80
2022-12-25T01:03:17.299Z,9.40
2022-12-25T01:08:19.090Z,9.20
2022-12-25T01:13:20.846Z,9.20
2022-12-25T01:18:24.493Z,9.20
2022-12-25T01:23:26.221Z,9.10
2022-12-25T01:28:27.944Z,9.10
2022-12-25T01:33:29.965Z,9.10
2022-12-25T01:38:31.708Z,9.10
2022-12-25T01:43:34.080Z,9.10
2022-12-25T01:48:38.568Z,9.20
2022-12-25T01:53:40.282Z,9.10
2022-12-25T01:58:42.961Z,9.20
2022-12-25T02:03:44.746Z,9.30
2022-12-25T02:08:46.500Z,9.10
2022-12-25T02:13:48.194Z,9.20
2022-12-25T02:18:53.789Z,9.10
2022-12-25T02:24:09.839Z,9.20
2022-12-25T02:29:24.486Z,9.30
2022-12-25T02:34:52.434Z,9.40
2022-12-25T02:40:39.737Z,9.10
2022-12-25T02:46:10.616Z,9.10
2022-12-25T02:51:35.043Z,9.30
2022-12-25T02:56:57.879Z,9.50
2022-12-25T03:02:19.113Z,9.40
2022-12-25T03:07:23.657Z,9.00
2022-12-25T03:12:52.192Z,8.90
2022-12-25T03:17:57.287Z,8.70
2022-12-25T03:23:17.864Z,8.70
2022-12-25T03:28:19.619Z,8.50
2022-12-25T03:34:09.252Z,8.20
2022-12-25T03:39:57.197Z,8.00
2022-12-25T03:45:27.264Z,7.80
2022-12-25T03:50:53.846Z,7.70
2022-12-25T03:56:15.001Z,7.70
2022-12-25T04:01:35.327Z,7.60
2022-12-25T04:06:55.739Z,7.70
2022-12-25T04:12:17.716Z,7.80
2022-12-25T04:17:37.850Z,7.80
2022-12-25T04:22:58.266Z,7.90
2022-12-25T04:28:22.473Z,7.90
2022-12-25T04:33:42.907Z,7.90
2022-12-25T04:38:44.657Z,7.90
2022-12-25T04:43:46.352Z,7.90
2022-12-25T04:48:48.064Z,7.80
2022-12-25T04:53:50.362Z,7.80
2022-12-25T04:58:52.210Z,7.90
2022-12-25T05:03:54.242Z,8.00
2022-12-25T05:08:56.068Z,8.00
2022-12-25T05:13:58.237Z,8.00
2022-12-25T05:19:00.065Z,7.90
2022-12-25T05:24:01.864Z,7.90
2022-12-25T05:29:03.678Z,7.80
2022-12-25T05:34:05.365Z,7.80
2022-12-25T05:39:07.072Z,7.70
2022-12-25T05:44:08.846Z,7.70
2022-12-25T05:49:10.621Z,7.90
2022-12-25T05:54:12.305Z,8.20
2022-12-25T05:59:13.994Z,8.30
2022-12-25T06:04:15.750Z,8.50
2022-12-25T06:09:17.470Z,8.50
2022-12-25T06:14:19.157Z,8.50
2022-12-25T06:19:21.897Z,8.40
2022-12-25T06:24:23.825Z,8.40
2022-12-25T06:29:25.622Z,8.50
2022-12-25T06:34:27.511Z,8.40
2022-12-25T06:39:29.320Z,8.40
2022-12-25T06:44:31.058Z,8.30
2022-12-25T06:49:32.785Z,8.40
2022-12-25T06:54:34.651Z,8.50
2022-12-25T06:59:36.423Z,8.50
2022-12-25T07:04:40.773Z,8.40
2022-12-25T07:09:42.677Z,8.20
2022-12-25T07:14:45.623Z,8.40
2022-12-25T07:19:47.478Z,8.30
2022-12-25T07:24:49.161Z,8.20
2022-12-25T07:29:50.918Z,8.40
2022-12-25T07:34:52.613Z,8.20
2022-12-25T07:39:54.297Z,8.30
2022-12-25T07:44:56.052Z,8.50
2022-12-25T07:49:57.792Z,8.40
2022-12-25T07:54:59.489Z,8.60
2022-12-25T08:00:01.367Z,8.50
2022-12-25T08:05:13.486Z,8.50
2022-12-25T08:10:15.334Z,8.80
2022-12-25T08:15:17.027Z,8.90
2022-12-25T08:20:18.726Z,9.10
2022-12-25T08:25:20.487Z,9.10
2022-12-25T08:30:22.235Z,8.90
2022-12-25T08:35:24.048Z,9.60
2022-12-25T08:40:26.601Z,11.10
2022-12-25T08:45:34.518Z,12.30
2022-12-25T08:50:36.866Z,12.40
2022-12-25T08:55:38.816Z,11.10
2022-12-25T09:00:41.173Z,10.50
2022-12-25T09:05:42.864Z,10.20
2022-12-25T09:10:44.604Z,10.50
2022-12-25T09:15:46.767Z,10.40
2022-12-25T09:21:00.822Z,10.80
2022-12-25T09:26:05.374Z,10.60
2022-12-25T09:31:07.383Z,10.50
2022-12-25T09:36:10.217Z,10.40
2022-12-25T09:41:35.243Z,10.30
2022-12-25T09:46:44.821Z,9.90
2022-12-25T09:51:54.845Z,9.80
2022-12-25T09:56:57.314Z,9.90
2022-12-25T10:02:32.253Z,9.90
2022-12-25T10:08:05.109Z,10.10
2022-12-25T10:13:26.218Z,10.40
2022-12-25T10:18:53.040Z,11.30
2022-12-25T10:23:57.833Z,11.90
2022-12-25T10:29:22.059Z,11.80
2022-12-25T10:34:23.996Z,11.20
2022-12-25T10:39:26.451Z,11.30
2022-12-25T10:44:28.168Z,11.00
2022-12-25T10:49:36.742Z,10.60
2022-12-25T10:54:39.642Z,11.10
2022-12-25T10:59:49.642Z,11.20
2022-12-25T11:04:58.544Z,11.20
2022-12-25T11:10:05.531Z,11.00
2022-12-25T11:15:43.164Z,11.90
2022-12-25T11:21:01.935Z,13.30
2022-12-25T11:26:08.141Z,13.70
2022-12-25T11:31:35.450Z,13.70
2022-12-25T11:36:43.163Z,13.10
2022-12-25T11:41:46.279Z,12.80
2022-12-25T11:46:52.084Z,12.60
2022-12-25T11:51:57.355Z,12.70
2022-12-25T11:57:03.322Z,12.70
2022-12-25T12:02:33.043Z,12.50
2022-12-25T12:07:36.780Z,12.40
2022-12-25T12:12:53.800Z,12.40
2022-12-25T12:18:06.948Z,12.20
2022-12-25T12:23:15.351Z,12.10
2022-12-25T12:28:29.589Z,12.10
2022-12-25T12:33:58.302Z,11.90
2022-12-25T12:39:01.538Z,12.00
2022-12-25T12:44:05.452Z,11.80
2022-12-25T12:49:16.405Z,11.70
2022-12-25T12:54:22.513Z,11.50
2022-12-25T12:59:25.508Z,11.60
2022-12-25T13:04:48.307Z,11.50
2022-12-25T13:10:33.548Z,11.50
2022-12-25T13:15:35.575Z,11.70
2022-12-25T13:20:56.618Z,11.70
2022-12-25T13:26:01.374Z,11.70
2022-12-25T13:31:12.432Z,11.80
2022-12-25T13:36:14.902Z,11.80
2022-12-25T13:41:38.499Z,12.30
2022-12-25T13:46:40.341Z,12.70
2022-12-25T13:51:42.121Z,12.70
2022-12-25T13:56:50.656Z,13.40
2022-12-25T14:01:54.233Z,13.60
2022-12-25T14:06:56.377Z,14.10
2022-12-25T14:11:58.169Z,13.00
2022-12-25T14:17:00.124Z,12.80
2022-12-25T14:22:10.725Z,11.60
2022-12-25T14:27:26.270Z,11.60
2022-12-25T14:32:30.938Z,11.20
2022-12-25T14:37:34.216Z,11.20
2022-12-25T14:42:37.290Z,11.30
2022-12-25T14:47:57.072Z,11.40
2022-12-25T14:52:59.839Z,11.00
2022-12-25T14:58:07.702Z,11.20
2022-12-25T15:03:23.044Z,11.10
2022-12-25T15:08:25.113Z,11.40
2022-12-25T15:13:27.660Z,11.50
2022-12-25T15:18:34.352Z,11.50
2022-12-25T15:23:36.124Z,11.50
2022-12-25T15:28:37.846Z,11.00
2022-12-25T15:33:44.055Z,11.00
2022-12-25T15:38:46.040Z,10.80
2022-12-25T15:43:47.725Z,10.70
2022-12-25T15:48:49.414Z,10.60
2022-12-25T15:53:51.220Z,10.70
2022-12-25T15:58:52.938Z,10.60
2022-12-25T16:03:54.699Z,10.50
2022-12-25T16:08:56.470Z,10.60
2022-12-25T16:13:58.183Z,10.40
2022-12-25T16:19:00.179Z,10.40
2022-12-25T16:24:01.867Z,10.30
2022-12-25T16:29:07.160Z,10.20
2022-12-25T16:34:09.931Z,10.40
2022-12-25T16:39:12.094Z,10.30
2022-12-25T16:44:14.701Z,10.40
2022-12-25T16:49:16.406Z,10.40
2022-12-25T16:54:18.247Z,10.40
2022-12-25T16:59:20.010Z,10.50
2022-12-25T17:04:21.844Z,10.40
2022-12-25T17:09:23.607Z,10.40
2022-12-25T17:14:25.580Z,10.30
2022-12-25T17:19:27.471Z,10.40
2022-12-25T17:24:29.819Z,10.40
2022-12-25T17:29:31.961Z,10.50
2022-12-25T17:34:33.836Z,10.50
2022-12-25T17:39:35.536Z,10.50
2022-12-25T17:44:37.254Z,10.60
2022-12-25T17:49:38.990Z,10.60
2022-12-25T17:54:40.846Z,10.70
2022-12-25T17:59:42.600Z,10.80
2022-12-25T18:04:44.449Z,10.80
2022-12-25T18:09:46.165Z,10.90
2022-12-25T18:14:47.870Z,10.80
2022-12-25T18:19:52.527Z,11.00
2022-12-25T18:24:54.225Z,11.10
2022-12-25T18:29:55.926Z,10.90
2022-12-25T18:34:57.889Z,10.60
2022-12-25T18:39:59.671Z,10.80
2022-12-25T18:45:01.530Z,10.70
2022-12-25T18:50:04.870Z,10.60
2022-12-25T18:55:07.823Z,10.30
2022-12-25T19:00:10.102Z,10.30
2022-12-25T19:05:11.807Z,10.20
2022-12-25T19:10:13.550Z,10.30
2022-12-25T19:15:16.306Z,10.30
2022-12-25T19:20:18.091Z,10.10
2022-12-25T19:25:19.827Z,9.90
2022-12-25T19:30:21.593Z,10.00
2022-12-25T19:35:23.546Z,9.90
2022-12-25T19:40:26.361Z,10.20
2022-12-25T19:45:28.130Z,10.40
2022-12-25T19:50:32.303Z,10.40
2022-12-25T19:55:34.049Z,10.60
2022-12-25T20:00:35.872Z,10.80
2022-12-25T20:05:38.031Z,10.90
2022-12-25T20:10:43.817Z,10.60
2022-12-25T20:15:45.909Z,10.50
2022-12-25T20:20:47.655Z,10.70
2022-12-25T20:25:49.416Z,10.70
2022-12-25T20:30:51.198Z,11.00
2022-12-25T20:35:53.098Z,11.30
2022-12-25T20:41:26.279Z,11.40
2022-12-25T20:46:25.637Z,11.50
2022-12-25T20:51:27.539Z,11.60
2022-12-25T20:56:30.174Z,11.70
2022-12-25T21:01:32.156Z,11.60
2022-12-25T21:06:34.204Z,11.70
2022-12-25T21:11:35.893Z,11.70
2022-12-25T21:16:37.625Z,11.50
2022-12-25T21:21:42.686Z,11.50
2022-12-25T21:26:47.954Z,11.40
2022-12-25T21:32:11.955Z,11.20
2022-12-25T21:37:13.641Z,11.10
2022-12-25T21:42:15.333Z,11.10
2022-12-25T21:47:17.177Z,11.00
2022-12-25T21:52:18.964Z,11.00
2022-12-25T21:57:20.674Z,11.00
2022-12-25T22:02:22.507Z,11.00
2022-12-25T22:07:24.379Z,11.20
2022-12-25T22:12:44.824Z,11.20
2022-12-25T22:18:05.444Z,11.10
2022-12-25T22:23:07.461Z,11.00
2022-12-25T22:28:09.300Z,11.10
2022-12-25T22:33:12.019Z,11.20
2022-12-25T22:38:14.257Z,11.20
2022-12-25T22:43:15.992Z,11.20
2022-12-25T22:48:17.939Z,11.30
2022-12-25T22:53:20.045Z,11.30
2022-12-25T22:58:21.888Z,11.40
2022-12-25T23:03:23.709Z,11.40
2022-12-25T23:08:25.626Z,11.40
2022-12-25T23:13:45.906Z,11.40
2022-12-25T23:19:06.360Z,11.40
2022-12-25T23:24:28.118Z,11.40
2022-12-25T23:29:39.780Z,11.40
2022-12-25T23:34:45.170Z,11.50
2022-12-25T23:39:50.014Z,11.50
2022-12-25T23:44:51.754Z,11.60
2022-12-25T23:49:53.464Z,11.60
2022-12-25T23:54:55.183Z,11.60
2022-12-25T23:59:57.034Z,11.70
